createdAt,value
2018-04-13T00:00:14.824Z,77.10
2018-04-13T00:02:49.322Z,76.77
2018-04-13T00:05:22.846Z,76.63
2018-04-13T00:07:56.410Z,76.31
2018-04-13T00:10:30.910Z,76.27
2018-04-13T00:13:04.673Z,76.49
2018-04-13T00:15:38.192Z,76.73
2018-04-13T00:18:11.730Z,76.70
2018-04-13T00:20:45.739Z,76.55
2018-04-13T00:23:19.396Z,76.58
2018-04-13T00:25:53.259Z,76.63
2018-04-13T00:28:26.905Z,76.54
2018-04-13T00:31:01.103Z,76.54
2018-04-13T00:33:35.179Z,76.61
2018-04-13T00:36:08.822Z,76.51
2018-04-13T00:38:42.366Z,76.57
2018-04-13T00:41:16.070Z,76.69
2018-04-13T00:43:49.927Z,76.87
2018-04-13T00:46:23.460Z,77.03
2018-04-13T00:48:57.114Z,77.36
2018-04-13T00:51:30.910Z,77.65
2018-04-13T00:54:04.711Z,77.91
2018-04-13T00:56:39.078Z,78.10
2018-04-13T00:59:12.665Z,78.01
2018-04-13T01:01:46.334Z,78.07
2018-04-13T01:04:20.146Z,78.06
2018-04-13T01:06:53.942Z,78.32
2018-04-13T01:09:27.512Z,78.34
2018-04-13T01:12:01.225Z,78.01
2018-04-13T01:14:35.104Z,78.07
2018-04-13T01:17:08.751Z,77.38
2018-04-13T01:19:42.405Z,77.30
2018-04-13T01:22:16.202Z,76.99
2018-04-13T01:24:49.806Z,76.77
2018-04-13T01:27:23.463Z,76.75
2018-04-13T01:29:57.146Z,76.48
2018-04-13T01:32:30.836Z,76.62
2018-04-13T01:35:04.351Z,76.36
2018-04-13T01:37:38.002Z,76.15
2018-04-13T01:40:11.774Z,76.15
2018-04-13T01:42:45.434Z,76.35
2018-04-13T01:45:19.263Z,76.41
2018-04-13T01:47:53.016Z,76.56
2018-04-13T01:50:26.711Z,76.46
2018-04-13T01:53:01.302Z,76.30
2018-04-13T01:55:34.963Z,76.37
2018-04-13T01:58:08.535Z,76.09
2018-04-13T02:00:42.326Z,76.04
2018-04-13T02:03:16.040Z,76.15
2018-04-13T02:05:50.103Z,76.12
2018-04-13T02:08:24.579Z,76.08
2018-04-13T02:10:58.293Z,76.12
2018-04-13T02:13:31.968Z,76.40
2018-04-13T02:16:05.608Z,76.63
2018-04-13T02:18:39.321Z,76.61
2018-04-13T02:21:13.069Z,76.57
2018-04-13T02:23:46.630Z,76.59
2018-04-13T02:26:20.166Z,76.48
2018-04-13T02:28:53.812Z,76.56
2018-04-13T02:31:27.630Z,76.45
2018-04-13T02:34:01.183Z,76.46
2018-04-13T02:36:34.750Z,76.16
2018-04-13T02:39:08.712Z,76.05
2018-04-13T02:41:42.361Z,76.14
2018-04-13T02:44:16.115Z,75.98
2018-04-13T02:46:49.810Z,75.93
2018-04-13T02:49:23.366Z,75.77
2018-04-13T02:51:57.902Z,75.69
2018-04-13T02:54:31.432Z,75.20
2018-04-13T02:57:05.161Z,75.08
2018-04-13T02:59:39.665Z,75.15
2018-04-13T03:02:13.277Z,74.87
2018-04-13T03:04:47.011Z,74.89
2018-04-13T03:07:20.546Z,75.10
2018-04-13T03:09:54.167Z,75.02
2018-04-13T03:12:27.767Z,74.84
2018-04-13T03:15:01.906Z,74.74
2018-04-13T03:17:35.784Z,74.72
2018-04-13T03:20:09.421Z,74.52
2018-04-13T03:22:42.933Z,74.57
2018-04-13T03:25:16.430Z,74.72
2018-04-13T03:27:49.971Z,74.93
2018-04-13T03:30:24.375Z,74.85
2018-04-13T03:32:58.103Z,74.68
2018-04-13T03:35:32.183Z,74.72
2018-04-13T03:38:05.875Z,74.44
2018-04-13T03:40:39.719Z,74.35
2018-04-13T03:43:14.114Z,74.23
2018-04-13T03:45:48.505Z,74.12
2018-04-13T03:48:22.268Z,73.92
2018-04-13T03:50:56.704Z,73.77
2018-04-13T03:53:30.343Z,73.67
2018-04-13T03:56:04.039Z,73.28
2018-04-13T03:58:37.599Z,73.06
2018-04-13T04:01:11.071Z,72.87
2018-04-13T04:03:44.565Z,72.43
2018-04-13T04:08:58.161Z,72.43
2018-04-13T04:11:31.965Z,72.15
2018-04-13T04:14:05.509Z,71.99
2018-04-13T04:16:39.407Z,71.99
2018-04-13T04:19:12.937Z,72.44
2018-04-13T04:21:58.251Z,71.99
2018-04-13T04:24:43.891Z,72.57
2018-04-13T04:27:17.619Z,73.03
2018-04-13T04:29:51.118Z,73.00
2018-04-13T04:32:24.642Z,72.61
2018-04-13T04:34:58.213Z,72.74
2018-04-13T04:37:31.740Z,72.91
2018-04-13T04:40:06.162Z,73.00
2018-04-13T04:42:39.751Z,73.29
2018-04-13T04:45:13.421Z,73.51
2018-04-13T04:47:47.178Z,73.68
2018-04-13T04:50:20.893Z,73.93
2018-04-13T04:52:54.463Z,74.06
2018-04-13T04:55:27.990Z,74.58
2018-04-13T04:58:01.863Z,74.91
2018-04-13T05:00:35.498Z,75.21
2018-04-13T05:03:09.015Z,75.31
2018-04-13T05:05:42.572Z,75.42
2018-04-13T05:08:16.372Z,75.42
2018-04-13T05:10:50.052Z,75.29
2018-04-13T05:13:23.818Z,74.69
2018-04-13T05:15:57.772Z,74.18
2018-04-13T05:18:31.400Z,73.73
2018-04-13T05:21:04.985Z,73.27
2018-04-13T05:23:38.614Z,72.91
2018-04-13T05:26:12.491Z,72.42
2018-04-13T05:28:46.555Z,72.16
2018-04-13T05:31:20.183Z,71.96
2018-04-13T05:33:53.875Z,71.96
2018-04-13T05:36:27.431Z,72.17
2018-04-13T05:39:01.277Z,72.24
2018-04-13T05:41:34.889Z,71.88
2018-04-13T05:44:08.502Z,71.58
2018-04-13T05:46:42.291Z,71.64
2018-04-13T05:49:15.827Z,71.70
2018-04-13T05:51:49.514Z,71.84
2018-04-13T05:54:23.502Z,71.75
2018-04-13T05:56:57.153Z,71.63
2018-04-13T05:59:31.834Z,71.54
2018-04-13T06:02:05.451Z,71.06
2018-04-13T06:04:39.003Z,71.10
2018-04-13T06:07:12.520Z,70.83
2018-04-13T06:09:46.169Z,70.47
2018-04-13T06:12:19.722Z,70.15
2018-04-13T06:14:53.450Z,70.06
2018-04-13T06:17:27.071Z,70.03
2018-04-13T06:20:00.556Z,69.93
2018-04-13T06:22:34.096Z,70.14
2018-04-13T06:25:07.630Z,69.19
2018-04-13T06:27:41.156Z,69.04
2018-04-13T06:30:14.828Z,69.17
2018-04-13T06:32:48.553Z,69.08
2018-04-13T06:35:22.218Z,69.28
2018-04-13T06:37:57.618Z,69.25
2018-04-13T06:40:31.310Z,69.12
2018-04-13T06:43:04.939Z,69.16
2018-04-13T06:45:38.720Z,69.06
2018-04-13T06:48:12.260Z,69.38
2018-04-13T06:50:45.915Z,69.42
2018-04-13T06:53:19.824Z,69.35
2018-04-13T06:55:53.600Z,69.57
2018-04-13T06:58:27.414Z,69.61
2018-04-13T07:01:01.304Z,69.27
2018-04-13T07:03:34.833Z,69.31
2018-04-13T07:06:08.404Z,69.15
2018-04-13T07:08:42.163Z,68.49
2018-04-13T07:11:15.746Z,68.04
2018-04-13T07:13:49.495Z,67.74
2018-04-13T07:16:23.013Z,68.12
2018-04-13T07:18:56.719Z,67.52
2018-04-13T07:21:31.360Z,66.92
2018-04-13T07:24:05.627Z,67.24
2018-04-13T07:26:39.819Z,67.25
2018-04-13T07:29:14.731Z,66.52
2018-04-13T07:31:48.919Z,65.25
2018-04-13T07:34:23.237Z,65.02
2018-04-13T07:36:56.291Z,65.29
2018-04-13T07:39:29.875Z,65.49
2018-04-13T07:42:03.704Z,65.08
2018-04-13T07:44:37.255Z,64.15
2018-04-13T07:47:10.975Z,65.23
2018-04-13T07:49:44.733Z,65.63
2018-04-13T07:52:19.789Z,65.93
2018-04-13T07:54:52.914Z,65.15
2018-04-13T07:57:26.659Z,64.18
2018-04-13T08:00:00.266Z,63.78
2018-04-13T08:02:33.891Z,64.40
2018-04-13T08:05:07.610Z,65.59
2018-04-13T08:07:41.480Z,65.96
2018-04-13T08:10:15.307Z,66.68
2018-04-13T08:12:48.723Z,66.89
2018-04-13T08:15:22.240Z,66.89
2018-04-13T08:17:55.987Z,66.69
2018-04-13T08:20:29.559Z,66.22
2018-04-13T08:23:03.364Z,65.93
2018-04-13T08:25:36.922Z,66.05
2018-04-13T08:28:10.664Z,66.10
2018-04-13T08:30:44.165Z,65.87
2018-04-13T08:33:17.890Z,66.53
2018-04-13T08:35:51.662Z,67.48
2018-04-13T08:38:25.510Z,68.00
2018-04-13T08:40:59.312Z,68.68
2018-04-13T08:43:32.885Z,69.83
2018-04-13T08:46:07.690Z,70.50
2018-04-13T08:48:41.389Z,70.17
2018-04-13T08:51:15.103Z,70.28
2018-04-13T08:53:48.689Z,70.05
2018-04-13T08:56:22.264Z,70.11
2018-04-13T08:58:56.294Z,71.04
2018-04-13T09:01:30.064Z,70.81
2018-04-13T09:04:03.812Z,70.87
2018-04-13T09:06:37.717Z,71.23
2018-04-13T09:09:11.599Z,71.66
2018-04-13T09:11:45.168Z,72.74
2018-04-13T09:14:18.818Z,73.07
2018-04-13T09:16:52.708Z,72.77
2018-04-13T09:19:26.342Z,72.59
2018-04-13T09:21:59.858Z,72.37
2018-04-13T09:24:33.540Z,72.56
2018-04-13T09:27:08.157Z,72.02
2018-04-13T09:29:41.887Z,71.71
2018-04-13T09:32:15.455Z,72.06
2018-04-13T09:34:49.023Z,72.58
2018-04-13T09:37:22.542Z,72.53
2018-04-13T09:39:56.380Z,72.27
2018-04-13T09:42:29.938Z,71.98
2018-04-13T09:45:04.572Z,71.51
2018-04-13T09:47:39.476Z,72.33
2018-04-13T09:50:13.276Z,72.68
2018-04-13T09:52:46.795Z,72.88
2018-04-13T09:55:20.532Z,72.66
2018-04-13T09:57:54.074Z,72.14
2018-04-13T10:00:30.534Z,71.67
2018-04-13T10:03:09.735Z,71.59
2018-04-13T10:05:43.512Z,71.33
2018-04-13T10:08:17.173Z,71.94
2018-04-13T10:10:51.605Z,71.52
2018-04-13T10:13:25.130Z,71.47
2018-04-13T10:15:58.691Z,71.28
2018-04-13T10:18:33.235Z,70.94
2018-04-13T10:21:06.784Z,70.61
2018-04-13T10:23:41.611Z,70.89
2018-04-13T10:26:23.026Z,70.60
2018-04-13T10:28:56.644Z,70.13
2018-04-13T10:31:30.257Z,69.82
2018-04-13T10:34:03.986Z,69.20
2018-04-13T10:36:37.519Z,69.62
2018-04-13T10:39:11.086Z,69.17
2018-04-13T10:41:44.908Z,68.50
2018-04-13T10:44:18.686Z,68.53
2018-04-13T10:56:37.524Z,67.31
2018-04-13T10:59:11.322Z,67.23
2018-04-13T11:01:45.132Z,66.27
2018-04-13T11:04:18.664Z,66.27
2018-04-13T11:06:52.520Z,66.51
2018-04-13T11:09:26.225Z,66.38
2018-04-13T11:11:59.903Z,66.75
2018-04-13T11:14:33.664Z,66.48
2018-04-13T11:17:07.360Z,66.60
2018-04-13T11:19:41.050Z,66.13
2018-04-13T11:22:14.876Z,65.33
2018-04-13T11:24:48.610Z,65.51
2018-04-13T11:27:22.401Z,65.02
2018-04-13T11:29:56.037Z,66.70
2018-04-13T11:32:29.822Z,67.02
2018-04-13T11:35:03.550Z,67.53
2018-04-13T11:37:37.120Z,67.83
2018-04-13T11:40:10.764Z,68.31
2018-04-13T11:42:44.266Z,67.79
2018-04-13T11:45:18.024Z,67.44
2018-04-13T11:47:51.698Z,67.10
2018-04-13T11:50:25.361Z,67.14
2018-04-13T11:52:58.976Z,67.74
2018-04-13T11:55:32.644Z,68.31
2018-04-13T11:58:06.256Z,68.87
2018-04-13T12:00:40.020Z,68.92
2018-04-13T12:03:14.190Z,68.99
2018-04-13T12:05:47.865Z,68.91
2018-04-13T12:08:21.590Z,68.73
2018-04-13T12:10:56.141Z,68.53
2018-04-13T12:13:30.566Z,68.26
2018-04-13T12:16:04.303Z,67.53
2018-04-13T12:18:37.863Z,67.39
2018-04-13T12:21:11.621Z,67.55
2018-04-13T12:23:45.242Z,67.70
2018-04-13T12:26:18.841Z,68.12
2018-04-13T12:28:52.426Z,68.02
2018-04-13T12:31:26.755Z,67.69
2018-04-13T12:34:00.775Z,67.68
2018-04-13T12:36:34.514Z,67.66
2018-04-13T12:39:09.217Z,67.38
2018-04-13T12:41:42.972Z,67.09
2018-04-13T12:44:16.596Z,66.95
2018-04-13T12:46:50.320Z,66.49
2018-04-13T12:49:24.797Z,66.37
2018-04-13T12:51:58.368Z,65.94
2018-04-13T12:54:32.376Z,65.94
2018-04-13T12:57:05.965Z,65.03
2018-04-13T12:59:40.091Z,64.66
2018-04-13T13:02:13.688Z,64.36
2018-04-13T13:04:47.352Z,63.62
2018-04-13T13:07:21.831Z,63.15
2018-04-13T13:09:55.486Z,63.08
2018-04-13T13:12:29.173Z,63.16
2018-04-13T13:15:02.983Z,63.17
2018-04-13T13:17:36.745Z,63.32
2018-04-13T13:20:11.529Z,63.38
2018-04-13T13:22:45.022Z,63.58
2018-04-13T13:25:19.431Z,63.54
2018-04-13T13:27:53.139Z,63.36
2018-04-13T13:30:27.458Z,63.37
2018-04-13T13:33:01.555Z,63.33
2018-04-13T13:35:35.188Z,63.48
2018-04-13T13:38:09.734Z,63.68
2018-04-13T13:40:43.351Z,63.90
2018-04-13T13:43:17.067Z,64.05
2018-04-13T13:45:50.740Z,64.00
2018-04-13T13:48:25.111Z,63.63
2018-04-13T13:50:58.796Z,64.04
2018-04-13T13:53:32.402Z,63.90
2018-04-13T13:56:06.998Z,63.97
2018-04-13T13:58:40.525Z,64.42
2018-04-13T14:01:14.494Z,64.47
2018-04-13T14:16:49.649Z,65.63
2018-04-13T14:19:23.322Z,65.92
2018-04-13T14:21:57.282Z,65.81
2018-04-13T14:24:30.938Z,66.20
2018-04-13T14:27:04.838Z,66.55
2018-04-13T14:29:38.470Z,66.83
2018-04-13T14:32:12.851Z,66.49
2018-04-13T14:34:47.343Z,66.69
2018-04-13T14:37:21.926Z,66.60
2018-04-13T14:39:55.533Z,66.70
2018-04-13T14:42:29.253Z,66.47
2018-04-13T14:54:53.715Z,66.96
2018-04-13T14:57:27.628Z,67.16
2018-04-13T15:00:01.335Z,67.61
2018-04-13T15:02:35.164Z,68.04
2018-04-13T15:05:08.804Z,68.34
2018-04-13T15:07:42.446Z,68.46
2018-04-13T15:10:16.238Z,68.23
2018-04-13T15:12:49.991Z,68.25
2018-04-13T15:15:23.558Z,68.28
2018-04-13T15:17:57.501Z,68.56
2018-04-13T15:20:31.082Z,68.48
2018-04-13T15:23:04.644Z,68.45
2018-04-13T15:25:38.575Z,68.14
2018-04-13T15:28:12.295Z,67.94
2018-04-13T15:30:45.864Z,68.22
2018-04-13T15:33:19.595Z,67.95
2018-04-13T15:35:53.173Z,67.88
2018-04-13T15:38:27.246Z,67.83
2018-04-13T15:41:01.157Z,68.24
2018-04-13T15:43:34.744Z,68.28
2018-04-13T15:46:09.362Z,68.47
2018-04-13T15:48:43.964Z,67.55
2018-04-13T15:51:17.746Z,67.62
2018-04-13T15:53:51.275Z,67.38
2018-04-13T15:56:24.827Z,66.95
2018-04-13T15:58:59.269Z,66.70
2018-04-13T16:01:32.979Z,66.86
2018-04-13T16:04:06.625Z,66.66
2018-04-13T16:06:40.206Z,67.02
2018-04-13T16:09:13.923Z,66.65
2018-04-13T16:11:47.455Z,66.42
2018-04-13T16:14:21.026Z,66.47
2018-04-13T16:16:54.578Z,66.58
2018-04-13T16:19:29.203Z,66.30
2018-04-13T16:22:02.850Z,66.63
2018-04-13T16:24:36.529Z,66.56
2018-04-13T16:27:11.240Z,66.42
2018-04-13T16:29:45.271Z,66.38
2018-04-13T16:32:19.651Z,66.27
2018-04-13T16:34:53.688Z,65.93
2018-04-13T16:37:27.359Z,65.82
2018-04-13T16:40:00.913Z,65.56
2018-04-13T16:42:34.810Z,66.01
2018-04-13T16:45:08.452Z,66.14
2018-04-13T16:47:42.004Z,66.12
2018-04-13T16:50:16.575Z,66.07
2018-04-13T16:52:50.243Z,66.08
2018-04-13T16:55:24.919Z,65.79
2018-04-13T16:57:58.511Z,65.89
2018-04-13T17:00:32.206Z,65.73
2018-04-13T17:03:05.756Z,65.67
2018-04-13T17:05:39.561Z,65.56
2018-04-13T17:08:14.802Z,65.41
2018-04-13T17:10:48.402Z,65.22
2018-04-13T17:13:21.945Z,65.14
2018-04-13T17:15:55.577Z,65.09
2018-04-13T17:18:29.201Z,65.14
2018-04-13T17:21:02.977Z,64.87
2018-04-13T17:23:36.667Z,64.72
2018-04-13T17:26:10.414Z,64.51
2018-04-13T17:28:44.060Z,64.56
2018-04-13T17:31:17.703Z,64.10
2018-04-13T17:33:52.015Z,64.28
2018-04-13T17:36:25.606Z,64.91
2018-04-13T17:38:59.140Z,65.47
2018-04-13T17:41:34.398Z,66.40
2018-04-13T17:44:08.935Z,66.42
2018-04-13T17:46:42.592Z,66.46
2018-04-13T17:49:16.164Z,66.41
2018-04-13T17:51:49.987Z,66.75
2018-04-13T17:54:23.785Z,66.88
2018-04-13T17:56:57.540Z,67.29
2018-04-13T17:59:31.173Z,67.64
2018-04-13T18:15:04.943Z,67.39
2018-04-13T18:17:38.631Z,67.10
2018-04-13T18:20:12.131Z,67.49
2018-04-13T18:22:45.893Z,67.30
2018-04-13T18:25:19.452Z,66.99
2018-04-13T18:27:53.167Z,67.80
2018-04-13T18:30:27.907Z,67.63
2018-04-13T18:33:01.646Z,67.48
2018-04-13T18:35:35.510Z,68.30
2018-04-13T18:38:09.209Z,68.50
2018-04-13T18:40:43.505Z,68.49
2018-04-13T18:43:17.155Z,68.14
2018-04-13T18:45:51.226Z,68.26
2018-04-13T18:48:24.780Z,69.15
2018-04-13T18:50:58.354Z,68.76
2018-04-13T18:53:31.993Z,68.72
2018-04-13T18:56:05.613Z,68.59
2018-04-13T18:58:39.278Z,68.18
2018-04-13T19:01:12.858Z,68.03
2018-04-13T19:03:46.479Z,67.93
2018-04-13T19:06:20.002Z,67.43
2018-04-13T19:08:53.639Z,67.22
2018-04-13T19:11:27.125Z,67.14
2018-04-13T19:14:00.795Z,67.22
2018-04-13T19:16:34.419Z,67.55
2018-04-13T19:19:08.063Z,67.56
2018-04-13T19:21:41.629Z,67.58
2018-04-13T19:24:15.285Z,67.72
2018-04-13T19:26:48.840Z,67.80
2018-04-13T19:29:22.371Z,68.15
2018-04-13T19:31:57.356Z,68.40
2018-04-13T19:34:31.087Z,68.40
2018-04-13T19:37:04.687Z,68.70
2018-04-13T19:39:38.239Z,68.97
2018-04-13T19:42:12.740Z,68.41
2018-04-13T19:44:46.580Z,68.53
2018-04-13T19:47:21.203Z,68.55
2018-04-13T19:49:54.872Z,68.87
2018-04-13T19:52:29.334Z,69.04
2018-04-13T19:55:03.006Z,69.32
2018-04-13T19:57:36.834Z,69.75
2018-04-13T20:00:10.506Z,69.82
2018-04-13T20:02:44.672Z,69.44
2018-04-13T20:05:18.379Z,68.89
2018-04-13T20:07:52.382Z,68.46
2018-04-13T20:10:26.030Z,68.16
2018-04-13T20:12:59.540Z,67.86
2018-04-13T20:15:33.259Z,67.64
2018-04-13T20:18:07.539Z,67.77
2018-04-13T20:20:41.416Z,67.57
2018-04-13T20:23:15.117Z,67.45
2018-04-13T20:25:49.780Z,66.98
2018-04-13T20:28:23.379Z,66.88
2018-04-13T20:30:57.875Z,66.86
2018-04-13T20:33:31.563Z,66.90
2018-04-13T20:36:05.470Z,66.71
2018-04-13T20:38:39.104Z,66.79
2018-04-13T20:41:12.639Z,66.71
2018-04-13T20:43:46.376Z,66.80
2018-04-13T20:46:20.935Z,67.11
2018-04-13T20:48:54.655Z,66.94
2018-04-13T20:51:28.229Z,66.60
2018-04-13T20:54:01.919Z,66.60
2018-04-13T20:56:36.126Z,66.39
2018-04-13T20:59:09.712Z,66.64
2018-04-13T21:01:43.427Z,66.45
2018-04-13T21:04:17.300Z,66.29
2018-04-13T21:19:52.846Z,67.65
2018-04-13T21:22:27.951Z,67.60
2018-04-13T21:25:01.548Z,67.51
2018-04-13T21:27:35.263Z,67.92
2018-04-13T21:30:09.193Z,67.88
2018-04-13T21:32:42.795Z,67.57
2018-04-13T21:35:16.541Z,67.30
2018-04-13T21:37:51.066Z,67.37
2018-04-13T21:40:24.800Z,67.11
2018-04-13T21:42:58.343Z,67.26
2018-04-13T21:55:17.078Z,67.47
2018-04-13T21:57:50.825Z,67.31
2018-04-13T22:00:24.371Z,67.51
2018-04-13T22:02:58.040Z,67.79
2018-04-13T22:05:31.946Z,67.65
2018-04-13T22:08:06.247Z,67.45
2018-04-13T22:10:40.318Z,67.23
2018-04-13T22:13:33.119Z,67.06
2018-04-13T22:16:07.027Z,66.70
2018-04-13T22:18:40.491Z,66.85
2018-04-13T22:21:15.055Z,66.79
2018-04-13T22:23:48.732Z,66.55
2018-04-13T22:26:22.348Z,66.55
2018-04-13T22:28:55.995Z,66.43
2018-04-13T22:31:29.780Z,66.35
2018-04-13T22:34:03.577Z,66.37
2018-04-13T22:36:37.162Z,66.31
2018-04-13T22:39:11.702Z,66.34
2018-04-13T22:41:45.548Z,66.52
2018-04-13T22:44:19.980Z,66.29
2018-04-13T22:46:53.772Z,66.41
2018-04-13T22:49:27.311Z,67.96
2018-04-13T22:52:00.872Z,67.85
2018-04-13T22:54:35.135Z,68.01
2018-04-13T22:57:09.008Z,67.94
2018-04-13T22:59:42.707Z,68.15
2018-04-13T23:02:16.355Z,68.85
2018-04-13T23:04:50.080Z,69.85
2018-04-13T23:07:23.880Z,69.54
2018-04-13T23:09:57.631Z,68.89
2018-04-13T23:12:31.181Z,68.65
2018-04-13T23:15:04.928Z,68.38
2018-04-13T23:17:38.447Z,68.16
2018-04-13T23:20:12.130Z,68.09
2018-04-13T23:22:45.682Z,68.20
2018-04-13T23:25:19.249Z,68.23
2018-04-13T23:27:52.761Z,68.09
2018-04-13T23:30:26.315Z,67.86
2018-04-13T23:32:59.945Z,67.61
2018-04-13T23:35:33.481Z,68.14
2018-04-13T23:38:08.305Z,68.26
2018-04-13T23:40:41.901Z,68.10
2018-04-13T23:43:15.435Z,67.71
2018-04-13T23:45:49.097Z,67.86
2018-04-13T23:48:22.822Z,67.77
2018-04-13T23:50:56.569Z,67.87
2018-04-13T23:53:30.188Z,68.32
2018-04-13T23:56:05.031Z,68.89
2018-04-13T23:58:38.624Z,69.57
